Time;durP1;ratioP1;P1;durP2;ratioP2;P2;SDS_P1;SDS_P2;PMS_P1;PMS_P2;Temp;Humidity;BMP_temperature;BMP_pressure;BME280_temperature;BME280_humidity;BME280_pressure;Samples;Min_cycle;Max_cycle;Signal;HPM_P1;HPM_P2
2021/01/07 00:02:22;;;;;;;9.55;6.13;;;;;;;0.11;85.97;96168.88;5054133;28;20044;-76
2021/01/07 00:04:48;;;;;;;9.45;6.70;;;;;;;0.10;85.91;96162.88;5053530;28;20053;-76
2021/01/07 00:07:15;;;;;;;10.43;6.18;;;;;;;0.11;86.04;96172.25;5052974;28;20049;-80
2021/01/07 00:09:41;;;;;;;10.70;6.78;;;;;;;0.14;85.97;96177.06;5050549;28;20052;-78
2021/01/07 00:12:08;;;;;;;9.70;6.32;;;;;;;0.14;85.94;96173.69;5035987;28;20057;-79
2021/01/07 00:14:34;;;;;;;11.50;6.25;;;;;;;0.15;85.95;96180.47;5050165;28;20401;-78
2021/01/07 00:17:00;;;;;;;10.90;6.35;;;;;;;0.15;85.98;96178.69;5053652;28;20064;-76
2021/01/07 00:19:26;;;;;;;11.32;6.13;;;;;;;0.15;85.88;96183.88;5035452;28;20049;-77
2021/01/07 00:21:53;;;;;;;9.63;6.10;;;;;;;0.16;85.63;96177.72;5025023;28;20049;-76
2021/01/07 00:24:19;;;;;;;9.85;6.13;;;;;;;0.17;85.96;96181.94;5051564;28;20497;-76
2021/01/07 00:26:45;;;;;;;11.55;7.00;;;;;;;0.17;85.71;96186.28;5051229;28;20055;-76
2021/01/07 00:29:11;;;;;;;9.30;6.18;;;;;;;0.12;85.65;96178.22;5038246;28;20053;-76
2021/01/07 00:31:37;;;;;;;9.98;6.45;;;;;;;0.09;85.58;96186.28;5003310;28;20477;-78
2021/01/07 00:34:04;;;;;;;9.93;6.00;;;;;;;0.08;85.69;96182.88;5019233;28;20045;-77
2021/01/07 00:36:30;;;;;;;9.63;5.78;;;;;;;0.07;85.48;96177.88;5030111;28;20053;-78
2021/01/07 00:38:56;;;;;;;9.45;5.22;;;;;;;0.04;85.30;96181.56;5020187;28;20055;-77
2021/01/07 00:41:23;;;;;;;8.40;5.75;;;;;;;0.03;85.42;96181.75;5025862;28;20052;-76
2021/01/07 00:43:49;;;;;;;11.40;6.00;;;;;;;0.01;85.47;96181.09;5046077;28;20035;-76
2021/01/07 00:46:17;;;;;;;11.52;5.90;;;;;;;0.02;85.55;96182.69;5029310;28;20040;-76
2021/01/07 00:48:45;;;;;;;11.18;5.95;;;;;;;0.04;85.39;96188.50;5031275;28;20048;-76
2021/01/07 00:51:11;;;;;;;7.95;5.22;;;;;;;0.05;85.59;96177.25;5042465;28;20059;-76
2021/01/07 00:53:38;;;;;;;7.25;5.10;;;;;;;0.07;85.53;96183.03;5047244;28;20473;-77
2021/01/07 00:56:04;;;;;;;11.63;6.13;;;;;;;0.08;85.57;96188.03;5049769;28;20056;-76
2021/01/07 00:58:30;;;;;;;6.97;5.25;;;;;;;0.07;85.48;96176.09;5041703;28;20474;-79
2021/01/07 01:00:56;;;;;;;6.43;4.88;;;;;;;0.04;85.37;96168.69;5031408;28;20049;-77
2021/01/07 01:03:23;;;;;;;6.97;5.22;;;;;;;0.04;85.49;96178.19;5024309;28;20045;-77
2021/01/07 01:05:49;;;;;;;8.32;5.25;;;;;;;0.06;85.51;96169.31;5031295;28;20044;-76
2021/01/07 01:08:17;;;;;;;9.45;5.20;;;;;;;0.06;85.63;96169.31;5048692;28;20053;-77
2021/01/07 01:10:44;;;;;;;8.25;5.22;;;;;;;0.08;85.47;96166.59;5051174;28;20489;-76
2021/01/07 01:13:10;;;;;;;9.13;5.57;;;;;;;0.09;85.49;96168.22;5040939;28;20053;-76
2021/01/07 01:15:38;;;;;;;8.13;5.63;;;;;;;0.08;85.55;96164.03;5048113;28;20497;-78
2021/01/07 01:18:05;;;;;;;7.10;5.18;;;;;;;0.07;85.25;96172.72;5042326;28;20053;-76
2021/01/07 01:20:31;;;;;;;7.43;5.78;;;;;;;0.06;85.38;96174.47;5040411;28;20041;-76
2021/01/07 01:22:57;;;;;;;8.85;5.28;;;;;;;0.03;85.27;96174.81;5050847;28;20045;-77
2021/01/07 01:25:23;;;;;;;8.45;5.40;;;;;;;0.01;85.46;96179.31;5047239;28;20045;-76
2021/01/07 01:27:50;;;;;;;8.63;5.63;;;;;;;0.03;85.38;96182.53;5014694;28;20048;-78
2021/01/07 01:30:16;;;;;;;10.15;5.57;;;;;;;0.03;85.38;96187.69;5045930;28;20064;-78
2021/01/07 01:32:44;;;;;;;8.63;5.50;;;;;;;0.03;85.27;96187.69;5049675;28;20052;-78
2021/01/07 01:35:12;;;;;;;8.02;5.78;;;;;;;0.06;85.37;96191.72;5047712;28;20044;-76
2021/01/07 01:37:40;;;;;;;8.77;5.30;;;;;;;0.06;85.44;96189.16;5049500;28;20061;-78
2021/01/07 01:40:08;;;;;;;7.10;4.97;;;;;;;0.07;85.43;96196.72;5049067;28;20048;-77
2021/01/07 01:42:34;;;;;;;7.00;5.18;;;;;;;0.09;85.70;96194.81;5034966;28;20053;-76
2021/01/07 01:45:01;;;;;;;8.48;6.07;;;;;;;0.11;85.37;96198.03;5038288;28;20061;-76
2021/01/07 01:47:27;;;;;;;7.70;5.55;;;;;;;0.13;85.47;96193.53;5051728;28;20409;-76
2021/01/07 01:49:55;;;;;;;8.45;5.63;;;;;;;0.13;85.27;96188.38;5039101;28;20049;-78
2021/01/07 01:52:23;;;;;;;8.07;6.10;;;;;;;0.10;85.20;96186.09;5049539;28;20040;-76
2021/01/07 01:54:49;;;;;;;8.00;5.20;;;;;;;0.10;85.01;96182.72;5046662;28;20044;-76
2021/01/07 01:57:17;;;;;;;8.70;5.75;;;;;;;0.10;85.15;96183.50;5037456;28;20052;-77
2021/01/07 01:59:44;;;;;;;8.27;5.38;;;;;;;0.09;85.04;96192.22;5025863;28;20469;-77
2021/01/07 02:02:16;;;;;;;9.57;6.22;;;;;;;0.08;84.98;96195.75;5052503;28;20048;-77
2021/01/07 02:04:46;;;;;;;9.65;5.97;;;;;;;0.05;85.08;96190.94;5029526;28;20044;-77
2021/01/07 02:07:16;;;;;;;8.55;6.05;;;;;;;0.07;85.14;96199.31;5034645;28;20045;-77
2021/01/07 02:09:44;;;;;;;8.60;5.85;;;;;;;0.06;85.00;96191.72;5043854;28;20397;-79
2021/01/07 02:12:11;;;;;;;7.80;5.68;;;;;;;0.09;85.38;96199.97;5032494;28;20049;-76
2021/01/07 02:14:42;;;;;;;8.73;6.70;;;;;;;0.01;84.85;96192.22;5048352;28;20063;-76
2021/01/07 02:17:09;;;;;;;8.98;6.40;;;;;;;-0.03;84.84;96196.88;5046523;28;20045;-76
2021/01/07 02:19:36;;;;;;;10.77;6.15;;;;;;;-0.06;85.10;96191.25;5046738;28;20049;-76
2021/01/07 02:22:03;;;;;;;9.18;6.25;;;;;;;-0.04;85.10;96194.47;5050994;28;20059;-76
2021/01/07 02:24:30;;;;;;;11.82;6.68;;;;;;;-0.01;85.26;96197.50;5042799;28;20489;-76
2021/01/07 02:27:09;;;;;;;9.77;6.32;;;;;;;-0.03;84.92;96196.06;5050116;28;20064;-76
2021/01/07 02:29:36;;;;;;;10.93;7.03;;;;;;;-0.06;84.89;96198.97;5039712;28;20056;-76
2021/01/07 02:32:04;;;;;;;12.82;6.97;;;;;;;-0.07;85.21;96194.75;5049569;28;20392;-77
2021/01/07 02:34:30;;;;;;;9.32;6.43;;;;;;;-0.05;85.28;96193.63;5041036;28;20057;-77
2021/01/07 02:36:57;;;;;;;11.30;7.43;;;;;;;-0.05;84.99;96191.06;5043604;28;20052;-77
2021/01/07 02:39:24;;;;;;;13.15;7.00;;;;;;;-0.06;84.97;96186.88;5031365;28;20053;-77
2021/01/07 02:41:55;;;;;;;10.55;7.25;;;;;;;-0.07;85.28;96187.81;5050357;28;20049;-77
2021/01/07 02:44:22;;;;;;;10.20;7.07;;;;;;;-0.03;85.14;96196.88;5050694;28;20056;-76
2021/01/07 02:46:49;;;;;;;13.88;7.85;;;;;;;-0.07;85.03;96184.47;5054911;28;20085;-77
2021/01/07 02:49:17;;;;;;;14.57;8.80;;;;;;;-0.09;84.90;96186.38;5050096;28;20045;-76
2021/01/07 02:51:43;;;;;;;17.15;9.35;;;;;;;-0.18;84.68;96180.41;5048635;28;20049;-77
2021/01/07 02:54:09;;;;;;;12.60;8.40;;;;;;;-0.24;84.84;96186.97;5053883;28;20044;-77
2021/01/07 02:56:36;;;;;;;13.18;8.35;;;;;;;-0.22;85.12;96184.25;5015583;28;20053;-77
2021/01/07 02:59:03;;;;;;;15.38;9.07;;;;;;;-0.22;85.10;96184.25;5028199;28;20037;-77
2021/01/07 03:01:29;;;;;;;12.13;7.80;;;;;;;-0.21;85.22;96186.69;5028240;28;20044;-77
2021/01/07 03:03:55;;;;;;;13.45;8.38;;;;;;;-0.17;85.30;96186.34;5031427;28;20038;-76
2021/01/07 03:06:23;;;;;;;14.63;8.88;;;;;;;-0.12;85.25;96181.56;5008106;28;20050;-77
2021/01/07 03:08:49;;;;;;;12.60;8.23;;;;;;;-0.09;85.39;96182.03;5037127;28;20053;-76
2021/01/07 03:11:16;;;;;;;15.52;8.50;;;;;;;-0.07;85.21;96174.13;5044915;28;20041;-77
2021/01/07 03:13:42;;;;;;;15.00;9.00;;;;;;;-0.06;85.02;96176.56;5051912;28;20060;-76
2021/01/07 03:16:08;;;;;;;14.38;9.18;;;;;;;-0.03;85.08;96190.91;5033940;28;20049;-76
2021/01/07 03:18:34;;;;;;;15.90;9.15;;;;;;;-0.03;84.96;96178.81;5050081;28;20395;-77
2021/01/07 03:21:00;;;;;;;17.08;9.85;;;;;;;-0.04;84.94;96181.56;5026447;28;20052;-76
2021/01/07 03:23:27;;;;;;;15.75;9.07;;;;;;;-0.05;84.70;96178.16;5052024;28;20049;-77
2021/01/07 03:25:53;;;;;;;15.32;9.52;;;;;;;-0.04;84.66;96184.16;5041192;28;20401;-78
2021/01/07 03:28:19;;;;;;;16.50;10.02;;;;;;;-0.07;84.70;96174.94;5052000;28;20071;-76
2021/01/07 03:30:45;;;;;;;14.20;9.88;;;;;;;-0.05;84.85;96177.38;5044767;28;20469;-76
2021/01/07 03:33:11;;;;;;;17.58;9.50;;;;;;;-0.05;84.97;96169.63;5046897;28;20048;-79
2021/01/07 03:35:37;;;;;;;14.77;9.32;;;;;;;-0.05;84.64;96175.59;5052091;28;20482;-76
2021/01/07 03:38:04;;;;;;;16.70;9.38;;;;;;;-0.03;84.80;96170.28;5031156;28;20049;-78
2021/01/07 03:40:30;;;;;;;15.60;9.75;;;;;;;-0.01;84.84;96174.31;5032346;28;20025;-77
2021/01/07 03:42:56;;;;;;;16.50;9.90;;;;;;;0.01;84.70;96171.59;5052509;28;20053;-77
2021/01/07 03:45:28;;;;;;;17.00;10.07;;;;;;;0.03;84.94;96161.13;5029518;28;20322;-76
2021/01/07 03:47:54;;;;;;;18.30;10.23;;;;;;;-0.02;84.65;96172.72;5053196;28;20585;-76
2021/01/07 03:50:21;;;;;;;18.00;10.48;;;;;;;-0.09;84.56;96171.72;5032935;28;20045;-77
2021/01/07 03:52:47;;;;;;;15.48;10.27;;;;;;;-0.10;84.71;96171.91;5051695;28;20366;-77
2021/01/07 03:55:14;;;;;;;18.70;10.95;;;;;;;-0.10;85.05;96164.97;5045656;28;20057;-77
2021/01/07 03:57:40;;;;;;;20.02;11.40;;;;;;;-0.12;84.99;96164.31;5052701;28;20489;-76
2021/01/07 04:00:06;;;;;;;19.10;10.32;;;;;;;-0.19;84.69;96163.31;5027478;28;20125;-77
2021/01/07 04:02:33;;;;;;;20.45;11.48;;;;;;;-0.19;85.06;96165.88;5042334;28;20493;-76
2021/01/07 04:04:59;;;;;;;21.38;11.60;;;;;;;-0.22;84.81;96163.63;5034026;28;20045;-76
2021/01/07 04:07:25;;;;;;;20.27;11.18;;;;;;;-0.21;85.10;96160.09;5030975;28;20037;-76
2021/01/07 04:09:51;;;;;;;18.83;10.70;;;;;;;-0.21;85.04;96154.94;5048827;28;20382;-77
2021/01/07 04:12:17;;;;;;;18.30;10.95;;;;;;;-0.18;85.19;96154.63;5052529;28;20041;-77
2021/01/07 04:14:44;;;;;;;19.05;11.20;;;;;;;-0.12;85.21;96160.94;5048902;28;20080;-78
2021/01/07 04:17:10;;;;;;;20.13;11.45;;;;;;;-0.09;85.15;96158.03;5015377;28;20049;-76
2021/01/07 04:19:36;;;;;;;17.30;10.30;;;;;;;-0.07;84.89;96171.56;5048508;28;20041;-78
2021/01/07 04:22:02;;;;;;;21.98;11.52;;;;;;;-0.06;85.08;96161.09;5033129;28;20056;-77
2021/01/07 04:24:29;;;;;;;19.40;11.07;;;;;;;-0.02;85.10;96156.44;5046328;28;20054;-77
2021/01/07 04:26:55;;;;;;;18.95;11.02;;;;;;;-0.03;84.57;96155.63;5034762;28;20409;-78
2021/01/07 04:29:21;;;;;;;19.83;11.48;;;;;;;-0.05;84.85;96151.59;5052944;28;20053;-76
2021/01/07 04:31:47;;;;;;;20.45;11.82;;;;;;;-0.06;84.68;96160.31;5053489;28;20044;-76
2021/01/07 04:34:13;;;;;;;19.50;11.32;;;;;;;-0.08;84.76;96159.66;5038650;28;20065;-77
2021/01/07 04:36:40;;;;;;;21.23;12.25;;;;;;;-0.10;84.65;96156.44;5027955;28;20049;-76
2021/01/07 04:39:06;;;;;;;21.60;10.98;;;;;;;-0.08;84.85;96160.47;5030599;28;20052;-76
2021/01/07 04:41:32;;;;;;;20.27;12.07;;;;;;;-0.05;85.16;96154.97;5027252;28;20048;-82
2021/01/07 04:43:59;;;;;;;19.40;11.35;;;;;;;-0.02;85.09;96159.81;5046541;28;20056;-76
2021/01/07 04:46:26;;;;;;;18.55;11.15;;;;;;;-0.03;84.98;96157.41;5032760;28;20037;-76
2021/01/07 04:48:53;;;;;;;21.83;11.45;;;;;;;-0.08;84.78;96159.66;5048389;28;20052;-77
2021/01/07 04:51:20;;;;;;;23.88;11.93;;;;;;;-0.14;84.79;96155.13;5048790;28;20049;-77
2021/01/07 04:53:48;;;;;;;21.35;11.90;;;;;;;-0.18;84.99;96153.84;5033617;28;20488;-78
2021/01/07 04:56:14;;;;;;;21.48;12.27;;;;;;;-0.16;84.81;96157.06;5048053;28;20468;-77
2021/01/07 04:58:40;;;;;;;21.77;12.02;;;;;;;-0.17;85.02;96153.66;5051271;28;20057;-77
2021/01/07 05:01:07;;;;;;;21.00;11.77;;;;;;;-0.17;85.18;96153.66;5033508;28;20048;-76
2021/01/07 05:03:34;;;;;;;20.92;11.50;;;;;;;-0.16;85.19;96164.78;5048546;28;20056;-76
2021/01/07 05:06:01;;;;;;;21.77;12.93;;;;;;;-0.14;85.10;96160.28;5042775;28;20055;-77
2021/01/07 05:08:28;;;;;;;20.77;11.35;;;;;;;-0.12;85.21;96155.78;5053030;28;20419;-77
2021/01/07 05:10:54;;;;;;;22.35;12.68;;;;;;;-0.11;84.87;96152.22;5047230;28;20045;-77
2021/01/07 05:13:22;;;;;;;21.85;12.35;;;;;;;-0.12;85.00;96140.31;5050835;28;20037;-77
2021/01/07 05:15:49;;;;;;;23.83;11.80;;;;;;;-0.10;85.13;96151.28;5051963;28;20061;-77
2021/01/07 05:18:15;;;;;;;20.88;12.50;;;;;;;-0.07;85.24;96145.78;5049422;28;20425;-79
2021/01/07 05:20:42;;;;;;;22.10;13.00;;;;;;;-0.04;85.11;96145.50;5043181;28;20052;-76
2021/01/07 05:23:09;;;;;;;22.65;12.60;;;;;;;-0.02;85.21;96140.97;5047591;28;20049;-77
2021/01/07 05:25:41;;;;;;;21.15;11.93;;;;;;;0.01;85.16;96142.44;5043367;28;20049;-76
2021/01/07 05:28:07;;;;;;;20.17;12.07;;;;;;;-0.02;84.86;96139.19;5050898;28;20049;-77
2021/01/07 05:30:34;;;;;;;23.08;13.00;;;;;;;0.00;85.00;96151.94;5049455;28;20382;-76
2021/01/07 05:33:06;;;;;;;22.38;11.93;;;;;;;0.02;85.10;96149.19;5041073;28;20494;-77
2021/01/07 05:35:32;;;;;;;22.95;12.68;;;;;;;0.00;84.91;96146.78;5046178;28;20045;-76
2021/01/07 05:38:01;;;;;;;23.27;12.23;;;;;;;-0.05;84.79;96156.75;5050836;28;20045;-77
2021/01/07 05:40:28;;;;;;;24.20;11.95;;;;;;;-0.10;84.90;96149.50;5046161;28;20048;-77
2021/01/07 05:42:58;;;;;;;24.05;12.00;;;;;;;-0.08;84.82;96146.78;5048315;28;20045;-77
2021/01/07 05:45:34;;;;;;;25.02;12.60;;;;;;;-0.07;85.43;96141.44;5035221;28;20036;-77
2021/01/07 05:48:02;;;;;;;24.15;12.63;;;;;;;-0.04;85.18;96148.88;5044928;28;20040;-77
2021/01/07 05:50:33;;;;;;;19.42;12.23;;;;;;;-0.03;85.12;96144.50;5032084;28;20041;-76
2021/01/07 05:53:01;;;;;;;21.92;12.23;;;;;;;-0.03;84.92;96142.72;5046511;28;20053;-76
2021/01/07 05:55:28;;;;;;;26.95;14.00;;;;;;;-0.04;84.80;96140.34;5046097;28;20052;-77
2021/01/07 05:58:01;;;;;;;22.35;12.13;;;;;;;-0.12;84.82;96141.13;5050374;28;20053;-77
2021/01/07 06:00:32;;;;;;;26.53;13.00;;;;;;;-0.15;84.98;96138.03;5027671;28;20492;-76
2021/01/07 06:03:00;;;;;;;24.20;12.57;;;;;;;-0.14;85.06;96134.50;5031071;28;20304;-76
2021/01/07 06:05:28;;;;;;;27.75;12.57;;;;;;;-0.13;85.25;96136.91;5050045;28;20036;-76
2021/01/07 06:07:58;;;;;;;25.95;13.02;;;;;;;-0.12;85.05;96138.53;5034507;28;20421;-76
2021/01/07 06:10:25;;;;;;;24.25;12.77;;;;;;;-0.12;85.06;96143.69;5016170;28;20457;-78
2021/01/07 06:12:52;;;;;;;24.45;13.00;;;;;;;-0.11;85.25;96149.66;5030515;28;20514;-76
2021/01/07 06:15:22;;;;;;;22.10;12.35;;;;;;;-0.11;85.19;96147.06;5027691;28;20045;-78
2021/01/07 06:17:49;;;;;;;28.65;14.57;;;;;;;-0.18;84.89;96154.63;5046349;28;20044;-76
2021/01/07 06:20:20;;;;;;;24.63;13.88;;;;;;;-0.25;85.17;96157.03;5046779;28;20036;-76
2021/01/07 06:22:53;;;;;;;23.25;12.05;;;;;;;-0.23;85.46;96157.69;5037209;28;20477;-77
2021/01/07 06:25:21;;;;;;;23.05;12.43;;;;;;;-0.19;85.64;96158.16;5043050;28;20421;-77
2021/01/07 06:27:49;;;;;;;23.75;13.30;;;;;;;-0.14;85.41;96158.50;5034208;28;20492;-77
2021/01/07 06:30:15;;;;;;;23.15;13.25;;;;;;;-0.10;85.26;96162.38;5018811;28;20057;-80
2021/01/07 06:32:46;;;;;;;24.13;12.70;;;;;;;-0.08;85.27;96155.31;5049943;28;20052;-77
2021/01/07 06:35:14;;;;;;;28.27;13.05;;;;;;;-0.09;85.14;96158.81;5052556;28;20055;-77
2021/01/07 06:37:49;;;;;;;24.13;13.52;;;;;;;-0.09;85.21;96158.81;5054481;28;20405;-76
2021/01/07 06:40:16;;;;;;;26.42;13.00;;;;;;;-0.09;85.07;96158.81;5042532;28;20041;-76
2021/01/07 06:42:48;;;;;;;21.77;12.23;;;;;;;-0.07;85.29;96156.09;5048790;28;20405;-76
2021/01/07 06:45:15;;;;;;;24.15;14.23;;;;;;;-0.04;85.31;96161.75;5053805;28;20478;-76
2021/01/07 06:47:42;;;;;;;23.23;13.38;;;;;;;-0.03;85.39;96153.03;5047932;28;20044;-76
2021/01/07 06:50:10;;;;;;;22.40;13.40;;;;;;;-0.01;85.20;96163.19;5029338;28;20057;-76
2021/01/07 06:52:40;;;;;;;23.20;12.52;;;;;;;0.00;85.02;96164.84;5048567;28;20058;-77
2021/01/07 06:55:14;;;;;;;24.55;13.35;;;;;;;0.01;85.24;96163.06;5051112;28;20044;-77
2021/01/07 06:57:45;;;;;;;22.00;13.30;;;;;;;0.03;85.01;96161.13;5053934;28;20048;-76
2021/01/07 07:00:16;;;;;;;24.80;13.25;;;;;;;0.04;85.14;96162.72;5054418;28;20045;-77
2021/01/07 07:02:58;;;;;;;27.10;13.07;;;;;;;0.00;84.98;96167.41;5028633;28;20393;-76
2021/01/07 07:05:29;;;;;;;24.95;13.77;;;;;;;0.01;85.09;96170.78;5049637;28;20052;-76
2021/01/07 07:08:05;;;;;;;26.83;14.38;;;;;;;0.01;85.02;96170.78;5047327;28;20049;-76
2021/01/07 07:10:31;;;;;;;23.77;12.93;;;;;;;-0.01;85.13;96171.72;5038913;28;20051;-77
2021/01/07 07:12:59;;;;;;;23.48;12.68;;;;;;;0.00;85.25;96164.84;5073443;28;20052;-79
2021/01/07 07:15:27;;;;;;;24.08;13.32;;;;;;;0.01;85.17;96163.84;5059164;28;20060;-76
2021/01/07 07:17:55;;;;;;;28.00;14.05;;;;;;;0.04;85.29;96167.88;5073110;28;20384;-77
2021/01/07 07:20:25;;;;;;;24.23;13.63;;;;;;;0.05;85.22;96165.16;5068391;28;20499;-77
2021/01/07 07:22:52;;;;;;;23.67;12.88;;;;;;;0.05;85.05;96159.19;5069881;28;20056;-77
2021/01/07 07:25:23;;;;;;;24.17;13.82;;;;;;;0.06;85.04;96164.16;5069799;28;20040;-77
2021/01/07 07:28:00;;;;;;;30.40;14.60;;;;;;;0.06;84.84;96158.22;5069323;28;20040;-77
2021/01/07 07:30:29;;;;;;;24.60;12.88;;;;;;;0.05;84.97;96166.94;5067071;28;20036;-76
2021/01/07 07:32:57;;;;;;;26.35;13.77;;;;;;;0.06;84.95;96171.91;5065789;28;20772;-76
2021/01/07 07:35:25;;;;;;;25.65;12.95;;;;;;;0.07;85.10;96176.09;5070128;28;20158;-76
2021/01/07 07:37:52;;;;;;;24.33;14.00;;;;;;;0.11;85.08;96171.44;5066610;28;20048;-76
2021/01/07 07:40:36;;;;;;;25.25;13.60;;;;;;;0.14;85.06;96184.00;5071265;28;20040;-77
2021/01/07 07:43:04;;;;;;;25.17;14.18;;;;;;;0.15;85.05;96190.78;5069647;28;20053;-76
2021/01/07 07:45:35;;;;;;;23.92;14.48;;;;;;;0.15;85.04;96185.63;5067545;28;20028;-76
2021/01/07 07:48:02;;;;;;;26.35;12.75;;;;;;;0.15;84.95;96183.06;5068486;28;20040;-76
2021/01/07 07:50:30;;;;;;;24.33;13.27;;;;;;;0.16;84.88;96194.97;5050858;28;20037;-76
2021/01/07 07:53:25;;;;;;;20.90;12.70;;;;;;;0.19;84.60;96199.84;5070639;28;20053;-76
2021/01/07 07:55:51;;;;;;;26.23;13.70;;;;;;;0.20;84.79;96198.84;5052715;28;20434;-78
2021/01/07 07:58:18;;;;;;;22.45;13.80;;;;;;;0.19;84.49;96202.41;5071068;28;20049;-79
2021/01/07 08:00:51;;;;;;;24.02;12.18;;;;;;;0.18;84.62;96201.56;5069406;28;20044;-76
2021/01/07 08:03:28;;;;;;;21.83;12.88;;;;;;;0.23;84.75;96202.88;5067689;28;20067;-81
2021/01/07 08:05:58;;;;;;;25.70;13.50;;;;;;;0.24;84.72;96202.72;5059746;28;20052;-77
2021/01/07 08:08:29;;;;;;;25.52;13.25;;;;;;;0.29;84.82;96197.09;5066464;28;20033;-76
2021/01/07 08:10:58;;;;;;;23.63;13.82;;;;;;;0.33;84.71;96206.91;5055842;28;20052;-77
2021/01/07 08:13:26;;;;;;;23.80;13.45;;;;;;;0.36;84.65;96201.47;5050366;28;20136;-79
2021/01/07 08:15:55;;;;;;;23.95;13.18;;;;;;;0.40;84.55;96201.94;5050010;28;20041;-77
2021/01/07 08:18:26;;;;;;;27.40;13.70;;;;;;;0.44;84.52;96210.16;5027091;28;21482;-76
2021/01/07 08:20:54;;;;;;;23.20;13.50;;;;;;;0.46;84.56;96208.22;5037214;28;20061;-77
2021/01/07 08:23:22;;;;;;;26.10;13.55;;;;;;;0.48;84.29;96214.81;5052801;28;20045;-77
2021/01/07 08:25:51;;;;;;;25.20;14.43;;;;;;;0.43;84.14;96218.88;5026188;28;20052;-77
2021/01/07 08:28:27;;;;;;;30.67;14.38;;;;;;;0.35;83.74;96222.25;5043671;28;20041;-76
2021/01/07 08:31:02;;;;;;;27.08;14.98;;;;;;;0.27;83.83;96223.03;5046986;28;20041;-76
2021/01/07 08:33:30;;;;;;;25.02;13.68;;;;;;;0.27;84.12;96217.06;5047888;28;20389;-76
2021/01/07 08:36:20;;;;;;;22.38;14.35;;;;;;;0.27;84.28;96223.03;5010626;28;20060;-76
2021/01/07 08:38:53;;;;;;;30.65;14.45;;;;;;;0.33;84.18;96224.16;5042648;28;20053;-76
2021/01/07 08:41:22;;;;;;;24.30;13.52;;;;;;;0.31;84.17;96220.94;5053430;28;20040;-76
2021/01/07 08:43:51;;;;;;;25.52;13.55;;;;;;;0.33;84.32;96224.97;5042451;28;20038;-76
2021/01/07 08:46:21;;;;;;;30.27;14.88;;;;;;;0.34;84.16;96220.66;5050829;28;20037;-76
2021/01/07 08:49:16;;;;;;;29.15;15.02;;;;;;;0.35;84.23;96225.63;5048886;28;20041;-76
2021/01/07 08:51:47;;;;;;;24.90;14.35;;;;;;;0.36;84.16;96223.88;5007636;28;20056;-79
2021/01/07 08:54:16;;;;;;;28.83;15.05;;;;;;;0.39;84.16;96224.34;5033542;28;20045;-76
2021/01/07 08:56:44;;;;;;;27.77;14.35;;;;;;;0.39;84.19;96226.13;5012856;28;20132;-77
2021/01/07 08:59:20;;;;;;;30.23;15.25;;;;;;;0.44;84.06;96226.44;5051605;28;20405;-80
2021/01/07 09:01:51;;;;;;;28.42;15.90;;;;;;;0.45;84.20;96217.75;5026328;28;20064;-77
2021/01/07 09:04:50;;;;;;;27.60;14.73;;;;;;;0.50;83.91;96225.78;5040945;28;20053;-77
2021/01/07 09:07:16;;;;;;;28.42;15.35;;;;;;;0.43;83.60;96226.63;5031172;28;20056;-76
2021/01/07 09:09:44;;;;;;;28.83;14.98;;;;;;;0.42;83.72;96222.41;5047440;28;20045;-77
2021/01/07 09:12:11;;;;;;;31.30;18.60;;;;;;;0.43;83.88;96219.69;5044242;28;20049;-77
2021/01/07 09:15:04;;;;;;;41.00;20.95;;;;;;;0.39;83.76;96215.81;5041970;28;20091;-77
2021/01/07 09:17:48;;;;;;;32.50;18.45;;;;;;;0.40;83.98;96222.59;5034380;28;20482;-79
2021/01/07 09:20:20;;;;;;;33.60;18.85;;;;;;;0.40;83.83;96223.38;5039906;28;20072;-77
2021/01/07 09:22:48;;;;;;;28.20;16.20;;;;;;;0.41;83.84;96216.44;5042275;28;20041;-76
2021/01/07 09:25:17;;;;;;;25.38;15.73;;;;;;;0.38;83.55;96219.34;5048128;28;20068;-76
2021/01/07 09:27:50;;;;;;;34.83;16.50;;;;;;;0.38;84.02;96229.69;5033689;28;20052;-76
2021/01/07 09:30:17;;;;;;;33.25;18.45;;;;;;;0.42;83.83;96230.16;5052242;28;20049;-77
2021/01/07 09:32:44;;;;;;;43.47;24.13;;;;;;;0.40;83.74;96228.53;5050700;28;20123;-77
2021/01/07 09:35:12;;;;;;;36.83;22.40;;;;;;;0.46;83.96;96232.25;5045362;28;20064;-77
2021/01/07 09:37:38;;;;;;;31.35;17.92;;;;;;;0.56;84.24;96224.34;5049760;28;20048;-77
2021/01/07 09:40:07;;;;;;;29.60;16.30;;;;;;;0.68;84.17;96230.03;5049144;28;20048;-77
2021/01/07 09:42:33;;;;;;;33.08;17.23;;;;;;;0.79;83.89;96233.06;5030309;28;20056;-77
2021/01/07 09:45:00;;;;;;;33.20;16.50;;;;;;;0.87;83.64;96227.09;5051733;28;20401;-77
2021/01/07 09:47:27;;;;;;;28.92;15.93;;;;;;;0.93;83.64;96226.47;5048778;28;20052;-77
2021/01/07 09:49:53;;;;;;;28.15;15.60;;;;;;;0.98;83.40;96221.59;5039917;28;20056;-77
2021/01/07 09:52:19;;;;;;;28.92;15.48;;;;;;;1.04;83.01;96224.50;5049393;28;20067;-77
2021/01/07 09:54:46;;;;;;;29.73;16.77;;;;;;;1.09;82.92;96227.41;5037691;28;20504;-77
2021/01/07 09:57:12;;;;;;;27.63;16.73;;;;;;;1.14;82.94;96227.72;5055936;28;20048;-77
2021/01/07 09:59:39;;;;;;;32.95;19.70;;;;;;;1.10;82.35;96218.69;5029253;28;20474;-79
2021/01/07 10:02:10;;;;;;;30.65;17.40;;;;;;;1.10;82.34;96221.28;5053505;28;20053;-77
2021/01/07 10:04:44;;;;;;;29.70;16.20;;;;;;;1.15;82.46;96211.25;5030459;28;20412;-77
2021/01/07 10:07:12;;;;;;;29.52;15.93;;;;;;;1.22;82.44;96225.13;5043432;28;20060;-77
2021/01/07 10:09:39;;;;;;;26.20;15.52;;;;;;;1.29;82.50;96220.09;5052905;28;20041;-76
2021/01/07 10:12:06;;;;;;;30.23;16.15;;;;;;;1.24;82.16;96218.03;5057021;28;20453;-77
2021/01/07 10:14:33;;;;;;;32.78;17.05;;;;;;;1.20;82.25;96217.53;5048666;28;20100;-76
2021/01/07 10:17:02;;;;;;;32.08;18.10;;;;;;;1.21;82.28;96213.19;5051771;28;20045;-76
2021/01/07 10:19:30;;;;;;;34.70;18.08;;;;;;;1.26;82.44;96216.09;5048355;28;20059;-77
2021/01/07 10:22:04;;;;;;;34.20;17.90;;;;;;;1.30;82.17;96204.47;5044964;28;20049;-77
2021/01/07 10:24:32;;;;;;;33.83;18.83;;;;;;;1.35;82.02;96209.13;5028852;28;20056;-76
2021/01/07 10:27:01;;;;;;;34.05;18.35;;;;;;;1.29;81.83;96212.38;5033057;28;20493;-77
2021/01/07 10:29:29;;;;;;;30.35;17.38;;;;;;;1.26;82.05;96213.50;5054152;28;20512;-77
2021/01/07 10:31:59;;;;;;;31.13;16.67;;;;;;;1.32;82.11;96209.44;5041534;28;20053;-77
2021/01/07 10:34:27;;;;;;;30.75;18.50;;;;;;;1.38;81.94;96209.56;5053420;28;20044;-77
2021/01/07 10:36:56;;;;;;;32.03;16.85;;;;;;;1.33;81.21;96208.47;5022875;28;20049;-77
2021/01/07 10:39:24;;;;;;;29.52;16.38;;;;;;;1.34;81.67;96200.53;5042240;28;20061;-76
2021/01/07 10:41:55;;;;;;;30.48;16.42;;;;;;;1.47;81.78;96201.81;5053033;28;20048;-76
2021/01/07 10:44:22;;;;;;;80.05;26.85;;;;;;;1.58;81.86;96193.69;5056418;28;20063;-76
2021/01/07 10:46:52;;;;;;;56.65;29.08;;;;;;;1.67;81.59;96187.50;5047605;28;20059;-76
2021/01/07 10:49:20;;;;;;;33.40;20.95;;;;;;;1.69;80.99;96187.34;5044703;28;20057;-77
2021/01/07 10:52:02;;;;;;;30.92;19.95;;;;;;;1.71;80.21;96185.41;5064838;28;20055;-76
2021/01/07 10:54:47;;;;;;;31.58;17.63;;;;;;;1.72;80.22;96184.41;5031154;28;20049;-78
2021/01/07 10:57:34;;;;;;;28.50;16.90;;;;;;;1.72;80.41;96185.25;5055631;28;20470;-76
2021/01/07 11:00:08;;;;;;;28.60;16.80;;;;;;;1.72;79.99;96182.66;5056056;28;20049;-76
2021/01/07 11:03:00;;;;;;;28.50;16.52;;;;;;;1.68;79.00;96177.97;5050904;28;20051;-76
2021/01/07 11:05:32;;;;;;;31.52;17.85;;;;;;;1.68;79.98;96172.81;5033868;28;20045;-76
2021/01/07 11:08:23;;;;;;;32.08;17.17;;;;;;;1.61;79.77;96168.31;5053777;28;20496;-76
2021/01/07 11:10:52;;;;;;;28.50;17.15;;;;;;;1.47;80.04;96163.03;5056207;28;20052;-76
2021/01/07 11:13:21;;;;;;;29.05;16.73;;;;;;;1.40;80.06;96163.69;5064596;28;20489;-76
2021/01/07 11:15:57;;;;;;;25.05;15.82;;;;;;;1.40;80.29;96161.13;5054828;28;20045;-77
2021/01/07 11:18:33;;;;;;;29.05;16.75;;;;;;;1.33;80.20;96156.81;5050618;28;20140;-76
2021/01/07 11:21:04;;;;;;;28.17;16.88;;;;;;;1.24;80.45;96161.19;5036043;28;20049;-76
2021/01/07 11:23:33;;;;;;;31.75;19.48;;;;;;;1.22;80.74;96157.97;5019935;28;20032;-76
2021/01/07 11:26:01;;;;;;;27.42;16.42;;;;;;;1.26;81.00;96150.69;5050888;28;20063;-76
2021/01/07 11:28:27;;;;;;;28.35;17.08;;;;;;;1.30;81.00;96154.53;5025398;28;20032;-75
2021/01/07 11:30:54;;;;;;;29.10;17.60;;;;;;;1.36;81.37;96146.13;5065693;28;20404;-76
2021/01/07 11:33:22;;;;;;;30.02;18.38;;;;;;;1.42;81.13;96141.09;5053016;28;20049;-76
2021/01/07 11:35:48;;;;;;;29.30;17.98;;;;;;;1.45;80.97;96142.56;5052477;28;20056;-76